Terminal Aerodrome Forecast
Issued by NWS St Louis, MO

Home | Current Version | Previous Version | Text Only | Print | Product List | Glossary On
Versions: 1 2 3 4 5 6 7 8 9 10 11 12 13 14 15 16 17 18 19 20 21 22 23 24 25
000
FTUS43 KLSX 242320
TAFSTL
TAF
KSTL 242320Z 2500/2606 31007KT P6SM FEW250
     FM250500 23005KT P6SM FEW250
     FM251600 31008KT P6SM FEW250
     FM251700 30012G21KT P6SM FEW250
     FM252300 31008KT P6SM FEW250=

USA.gov is the U.S. government's official web portal to all federal, state and local government web resources and services.